Terminal Aerodrome Forecast
Issued by NWS Kansas City/Pleasant Hill, MO

Home | Current Version | Previous Version | Text Only | Print | Product List | Glossary On
Versions: 1 2 3 4 5 6 7 8 9 10 11 12 13 14 15 16 17 18 19 20 21 22 23 24 25 26 27 28 29
000
FTUS43 KEAX 210520
TAFMCI
TAF
KMCI 210520Z 2106/2206 17006KT P6SM SCT035
     FM210800 21007KT 2SM BR FEW002
     FM211300 22007KT 1SM BR SCT002
     FM211700 21008KT 4SM BR SCT070
     FM211800 21008KT P6SM FEW200
     FM220400 VRB03KT P6SM VCSH BKN050=

USA.gov is the U.S. government's official web portal to all federal, state and local government web resources and services.